createdAt,value
2022-09-03T00:02:40.882Z,62.90
2022-09-03T00:06:50.080Z,61.90
2022-09-03T00:10:55.810Z,64.20
2022-09-03T00:15:25.851Z,64.20
2022-09-03T00:19:35.281Z,63.00
2022-09-03T00:23:44.432Z,64.60
2022-09-03T00:27:52.714Z,64.30
2022-09-03T00:32:07.027Z,64.60
2022-09-03T00:36:24.924Z,64.80
2022-09-03T00:40:56.760Z,64.80
2022-09-03T00:45:24.334Z,64.50
2022-09-03T00:49:49.864Z,64.50
2022-09-03T00:54:05.638Z,64.90
2022-09-03T00:58:16.896Z,65.90
2022-09-03T01:02:29.119Z,65.90
2022-09-03T01:06:40.276Z,66.20
2022-09-03T01:10:58.028Z,66.00
2022-09-03T01:15:54.442Z,66.10
2022-09-03T01:20:18.900Z,65.20
2022-09-03T01:24:31.239Z,66.20
2022-09-03T01:29:12.028Z,66.40
2022-09-03T01:33:19.511Z,65.60
2022-09-03T01:37:48.141Z,66.10
2022-09-03T01:42:20.337Z,65.90
2022-09-03T01:46:30.857Z,66.30
2022-09-03T01:50:42.455Z,66.50
2022-09-03T01:55:11.547Z,66.40
2022-09-03T01:59:27.667Z,65.60
2022-09-03T02:03:41.202Z,66.80
2022-09-03T02:07:53.030Z,66.70
2022-09-03T02:12:03.295Z,67.00
2022-09-03T02:16:15.994Z,67.00
2022-09-03T02:20:27.955Z,66.90
2022-09-03T02:24:31.644Z,66.90
2022-09-03T02:28:35.549Z,66.70
2022-09-03T02:32:38.394Z,66.90
2022-09-03T02:36:47.908Z,66.90
2022-09-03T02:40:56.399Z,66.90
2022-09-03T02:45:25.045Z,67.10
2022-09-03T02:49:28.742Z,67.50
2022-09-03T02:53:31.614Z,67.30
2022-09-03T02:57:37.279Z,67.60
2022-09-03T03:01:43.820Z,67.80
2022-09-03T03:05:58.926Z,68.00
2022-09-03T03:10:01.698Z,68.40
2022-09-03T03:14:06.170Z,68.50
2022-09-03T03:18:14.087Z,68.60
2022-09-03T03:22:17.055Z,68.70
2022-09-03T03:26:21.482Z,68.70
2022-09-03T03:30:25.716Z,68.80
2022-09-03T03:34:28.613Z,68.50
2022-09-03T03:38:31.740Z,68.90
2022-09-03T03:42:35.703Z,68.90
2022-09-03T03:46:40.956Z,69.10
2022-09-03T03:50:44.601Z,69.40
2022-09-03T03:54:50.243Z,69.80
2022-09-03T03:58:56.170Z,69.80
2022-09-03T04:02:59.504Z,69.80
2022-09-03T04:07:03.427Z,70.50
2022-09-03T04:11:09.751Z,70.40
2022-09-03T04:15:12.994Z,70.60
2022-09-03T04:19:15.782Z,70.60
2022-09-03T04:23:19.569Z,70.80
2022-09-03T04:27:23.881Z,70.80
2022-09-03T04:31:31.773Z,70.80
2022-09-03T04:35:35.944Z,70.60
2022-09-03T04:39:46.033Z,70.60
2022-09-03T04:43:54.309Z,70.70
2022-09-03T04:47:58.108Z,71.00
2022-09-03T04:52:01.515Z,71.30
2022-09-03T04:56:19.841Z,71.30
2022-09-03T05:00:23.060Z,71.30
2022-09-03T05:04:26.257Z,71.30
2022-09-03T05:08:40.590Z,71.50
2022-09-03T05:13:00.181Z,71.60
2022-09-03T05:17:03.497Z,71.40
2022-09-03T05:21:11.690Z,71.40
2022-09-03T05:25:14.557Z,71.90
2022-09-03T05:29:21.205Z,71.60
2022-09-03T05:33:28.085Z,71.20
2022-09-03T05:38:20.432Z,71.00
2022-09-03T05:42:37.989Z,71.00
2022-09-03T05:46:40.628Z,71.00
2022-09-03T05:50:43.256Z,69.10
2022-09-03T05:59:10.327Z,71.10
2022-09-03T06:03:14.499Z,70.80
2022-09-03T06:07:18.555Z,70.10
2022-09-03T06:11:28.092Z,69.90
2022-09-03T06:15:32.840Z,70.10
2022-09-03T06:19:35.580Z,69.30
2022-09-03T06:23:46.658Z,69.50
2022-09-03T06:27:49.641Z,69.30
2022-09-03T06:31:56.999Z,68.70
2022-09-03T06:36:03.781Z,67.80
2022-09-03T06:40:23.313Z,67.80
2022-09-03T06:44:32.621Z,68.10
2022-09-03T06:48:37.024Z,68.20
2022-09-03T06:52:42.754Z,68.30
2022-09-03T06:56:46.075Z,69.00
2022-09-03T07:00:51.238Z,69.40
2022-09-03T07:04:53.961Z,69.60
2022-09-03T07:09:00.157Z,69.50
2022-09-03T07:13:03.059Z,69.50
2022-09-03T07:17:05.841Z,69.60
2022-09-03T07:21:11.808Z,69.10
2022-09-03T07:25:18.194Z,69.10
2022-09-03T07:29:22.132Z,69.20
2022-09-03T07:33:24.974Z,69.20
2022-09-03T07:37:27.703Z,68.80
2022-09-03T07:41:33.479Z,68.80
2022-09-03T07:45:37.447Z,68.80
2022-09-03T07:49:40.227Z,68.60
2022-09-03T07:53:43.619Z,68.70
2022-09-03T07:57:46.366Z,68.60
2022-09-03T08:01:49.388Z,68.60
2022-09-03T08:05:52.051Z,68.50
2022-09-03T08:10:00.072Z,68.40
2022-09-03T08:14:06.496Z,68.50
2022-09-03T08:18:10.629Z,68.50
2022-09-03T08:22:14.355Z,68.50
2022-09-03T08:26:19.127Z,68.40
2022-09-03T08:30:22.202Z,68.50
2022-09-03T08:34:26.777Z,68.50
2022-09-03T08:38:31.560Z,68.60
2022-09-03T08:42:48.696Z,68.60
2022-09-03T08:46:59.035Z,68.80
2022-09-03T08:51:04.789Z,69.00
2022-09-03T08:55:08.741Z,69.90
2022-09-03T08:59:11.484Z,70.80
2022-09-03T09:03:26.158Z,71.50
2022-09-03T09:08:03.026Z,71.90
2022-09-03T09:12:44.187Z,71.50
2022-09-03T09:16:58.386Z,70.50
2022-09-03T09:21:28.085Z,71.50
2022-09-03T09:25:40.960Z,70.60
2022-09-03T09:29:52.413Z,71.10
2022-09-03T09:33:55.811Z,71.80
2022-09-03T09:38:00.502Z,71.00
2022-09-03T09:42:12.242Z,71.50
2022-09-03T09:46:21.133Z,71.40
2022-09-03T09:50:26.181Z,70.80
2022-09-03T09:54:29.737Z,70.90
2022-09-03T09:58:40.250Z,70.50
2022-09-03T10:02:51.552Z,70.90
2022-09-03T10:07:24.173Z,70.70
2022-09-03T10:11:27.595Z,70.90
2022-09-03T10:16:06.165Z,71.20
2022-09-03T10:20:40.775Z,70.70
2022-09-03T10:24:59.933Z,70.30
2022-09-03T10:29:08.981Z,71.00
2022-09-03T10:33:23.342Z,71.00
2022-09-03T10:37:35.492Z,71.10
2022-09-03T10:41:54.975Z,71.20
2022-09-03T10:46:08.820Z,71.50
2022-09-03T10:50:25.711Z,71.40
2022-09-03T10:55:00.656Z,72.00
2022-09-03T10:59:19.298Z,71.70
2022-09-03T11:03:57.004Z,71.90
2022-09-03T11:08:02.593Z,72.40
2022-09-03T11:12:12.458Z,72.30
2022-09-03T11:16:29.046Z,72.80
2022-09-03T11:20:33.762Z,72.30
2022-09-03T11:24:40.586Z,72.40
2022-09-03T11:28:56.872Z,72.20
2022-09-03T11:33:07.457Z,72.30
2022-09-03T11:37:21.010Z,71.90
2022-09-03T11:41:31.911Z,72.30
2022-09-03T11:45:37.871Z,72.10
2022-09-03T11:49:50.969Z,72.10
2022-09-03T11:53:56.873Z,72.70
2022-09-03T11:58:27.618Z,72.30
2022-09-03T12:02:36.316Z,72.20
2022-09-03T12:07:28.091Z,73.00
2022-09-03T12:11:42.020Z,72.40
2022-09-03T12:16:26.017Z,73.60
2022-09-03T12:20:29.302Z,72.70
2022-09-03T12:24:37.723Z,73.30
2022-09-03T12:28:43.943Z,73.10
2022-09-03T12:32:48.765Z,72.30
2022-09-03T12:36:57.297Z,71.20
2022-09-03T12:45:25.805Z,70.50
2022-09-03T12:49:33.893Z,69.70
2022-09-03T12:53:36.834Z,68.70
2022-09-03T12:57:49.221Z,67.70
2022-09-03T13:02:00.711Z,68.90
2022-09-03T13:06:13.832Z,69.60
2022-09-03T13:10:29.684Z,69.90
2022-09-03T13:14:47.703Z,69.20
2022-09-03T13:19:24.672Z,69.40
2022-09-03T13:23:58.876Z,69.90
2022-09-03T13:28:16.768Z,69.80
2022-09-03T13:32:40.694Z,67.70
2022-09-03T13:36:56.200Z,66.30
2022-09-03T13:41:07.631Z,65.30
2022-09-03T13:45:10.411Z,65.70
2022-09-03T13:49:55.418Z,64.70
2022-09-03T13:54:11.596Z,64.80
2022-09-03T13:58:20.059Z,62.40
2022-09-03T14:03:05.357Z,60.90
2022-09-03T14:07:15.356Z,60.20
2022-09-03T14:11:35.397Z,59.20
2022-09-03T14:15:52.308Z,59.60
2022-09-03T14:20:25.183Z,59.20
2022-09-03T14:24:28.947Z,59.40
2022-09-03T14:28:44.716Z,60.00
2022-09-03T14:33:16.629Z,60.80
2022-09-03T14:37:43.706Z,60.60
2022-09-03T14:42:12.186Z,60.80
2022-09-03T14:46:23.999Z,61.40
2022-09-03T14:51:16.448Z,61.60
2022-09-03T14:55:46.454Z,61.60
2022-09-03T15:00:20.073Z,61.40
2022-09-03T15:04:50.045Z,61.20
2022-09-03T15:09:06.512Z,61.20
2022-09-03T15:13:17.465Z,61.50
2022-09-03T15:17:29.779Z,60.20
2022-09-03T15:22:11.122Z,60.20
2022-09-03T15:26:42.025Z,60.20
2022-09-03T15:30:56.784Z,58.50
2022-09-03T15:35:22.332Z,58.30
2022-09-03T15:39:34.434Z,57.90
2022-09-03T15:43:38.635Z,58.20
2022-09-03T15:47:54.466Z,58.30
2022-09-03T15:52:06.136Z,58.40
2022-09-03T15:56:29.111Z,57.90
2022-09-03T16:00:33.971Z,57.50
2022-09-03T16:04:56.828Z,56.40
2022-09-03T16:09:05.457Z,56.20
2022-09-03T16:13:31.846Z,56.10
2022-09-03T16:18:08.465Z,56.60
2022-09-03T16:22:31.825Z,57.00
2022-09-03T16:26:59.476Z,57.50
2022-09-03T16:31:35.644Z,57.90
2022-09-03T16:35:59.323Z,58.20
2022-09-03T16:40:29.669Z,59.10
2022-09-03T16:45:11.934Z,59.50
2022-09-03T16:49:45.132Z,59.90
2022-09-03T16:54:06.157Z,60.60
2022-09-03T16:58:19.775Z,61.20
2022-09-03T17:02:49.383Z,61.90
2022-09-03T17:07:18.076Z,62.10
2022-09-03T17:11:49.149Z,62.80
2022-09-03T17:16:04.640Z,63.10
2022-09-03T17:20:23.602Z,62.90
2022-09-03T17:24:47.755Z,63.00
2022-09-03T17:29:01.394Z,63.20
2022-09-03T17:33:51.971Z,63.40
2022-09-03T17:38:11.349Z,63.40
2022-09-03T17:42:38.518Z,63.60
2022-09-03T17:47:06.300Z,63.90
2022-09-03T17:51:35.223Z,64.00
2022-09-03T17:55:42.387Z,64.80
2022-09-03T17:59:48.284Z,65.10
2022-09-03T18:04:05.093Z,65.70
2022-09-03T18:08:43.420Z,65.10
2022-09-03T18:13:12.595Z,65.10
2022-09-03T18:17:39.149Z,65.00
2022-09-03T18:22:00.790Z,64.80
2022-09-03T18:26:31.820Z,65.80
2022-09-03T18:30:53.331Z,65.20
2022-09-03T18:35:14.997Z,65.80
2022-09-03T18:39:55.978Z,65.90
2022-09-03T18:44:29.470Z,65.70
2022-09-03T18:49:44.421Z,66.30
2022-09-03T18:54:11.616Z,65.90
2022-09-03T18:58:48.805Z,67.10
2022-09-03T19:03:35.791Z,67.20
2022-09-03T19:08:18.445Z,67.80
2022-09-03T19:13:06.183Z,67.60
2022-09-03T19:18:07.781Z,68.60
2022-09-03T19:22:31.670Z,68.00
2022-09-03T19:27:53.113Z,68.70
2022-09-03T19:32:20.336Z,68.10
2022-09-03T19:36:52.207Z,69.20
2022-09-03T19:41:22.737Z,69.60
2022-09-03T19:45:53.320Z,69.90
2022-09-03T19:50:41.026Z,70.40
2022-09-03T19:55:03.599Z,69.80
2022-09-03T19:59:37.543Z,70.30
2022-09-03T20:04:00.549Z,70.60
2022-09-03T20:08:23.256Z,70.70
2022-09-03T20:12:31.126Z,71.00
2022-09-03T20:16:46.271Z,71.40
2022-09-03T20:20:58.959Z,71.40
2022-09-03T20:25:28.564Z,71.70
2022-09-03T20:30:00.248Z,70.90
2022-09-03T20:34:05.425Z,70.80
2022-09-03T20:38:36.222Z,71.70
2022-09-03T20:43:04.584Z,71.70
2022-09-03T20:47:08.063Z,71.90
2022-09-03T20:51:20.870Z,72.00
2022-09-03T20:55:34.696Z,72.30
2022-09-03T21:00:11.056Z,72.40
2022-09-03T21:04:51.140Z,71.90
2022-09-03T21:09:13.618Z,71.80
2022-09-03T21:13:21.867Z,72.50
2022-09-03T21:17:51.648Z,72.80
2022-09-03T21:21:57.431Z,73.30
2022-09-03T21:26:14.297Z,73.30
2022-09-03T21:30:20.689Z,73.30
2022-09-03T21:34:49.955Z,73.50
2022-09-03T21:39:05.736Z,73.20
2022-09-03T21:43:14.823Z,74.00
2022-09-03T21:47:21.297Z,74.10
2022-09-03T21:51:51.098Z,74.10
2022-09-03T21:56:16.558Z,73.90
2022-09-03T22:00:29.545Z,74.40
2022-09-03T22:04:32.662Z,74.30
2022-09-03T22:08:49.164Z,74.30
2022-09-03T22:13:09.490Z,74.30
2022-09-03T22:17:44.380Z,73.90
2022-09-03T22:22:01.758Z,73.70
2022-09-03T22:26:20.256Z,74.20
2022-09-03T22:30:23.845Z,74.40
2022-09-03T22:34:45.415Z,74.20
2022-09-03T22:39:12.430Z,74.10
2022-09-03T22:43:28.319Z,74.50
2022-09-03T22:48:22.629Z,74.40
2022-09-03T22:52:46.526Z,73.90
2022-09-03T22:56:50.753Z,74.30
2022-09-03T23:01:08.339Z,75.00
2022-09-03T23:05:33.169Z,75.30
2022-09-03T23:09:40.630Z,75.40
2022-09-03T23:13:48.868Z,75.50
2022-09-03T23:18:05.436Z,75.30
2022-09-03T23:22:13.252Z,75.40
2022-09-03T23:26:22.209Z,74.30
2022-09-03T23:30:25.785Z,75.60
2022-09-03T23:34:31.243Z,75.50
2022-09-03T23:38:52.773Z,75.60
2022-09-03T23:43:13.892Z,75.50
2022-09-03T23:47:38.661Z,75.80
2022-09-03T23:52:14.889Z,75.90
2022-09-03T23:56:26.576Z,75.80
